createdAt,value
2024-04-04T00:02:00.824Z,1.68
2024-04-04T00:07:23.739Z,1.67
2024-04-04T00:12:43.366Z,1.63
2024-04-04T00:17:47.976Z,1.59
2024-04-04T00:22:50.994Z,1.55
2024-04-04T03:03:06.053Z,1.26
2024-04-04T03:08:09.638Z,1.31
2024-04-04T03:13:12.685Z,1.34
2024-04-04T03:18:20.872Z,1.32
2024-04-04T03:23:23.661Z,1.33
2024-04-04T03:28:26.481Z,1.33
2024-04-04T03:33:29.357Z,1.33
2024-04-04T03:38:32.448Z,1.32
2024-04-04T03:43:35.196Z,1.31
2024-04-04T03:48:38.123Z,1.29
2024-04-04T03:53:41.202Z,1.28
2024-04-04T03:58:44.429Z,1.25
2024-04-04T04:03:47.655Z,1.17
2024-04-04T04:08:50.719Z,1.12
2024-04-04T04:13:53.906Z,1.06
2024-04-04T04:19:16.856Z,1.02
2024-04-04T04:24:39.925Z,0.99
2024-04-04T04:30:03.304Z,0.93
2024-04-04T04:35:26.521Z,0.91
2024-04-04T04:40:49.378Z,0.87
2024-04-04T04:45:52.252Z,0.85
2024-04-04T04:51:15.153Z,0.83
2024-04-04T04:56:17.884Z,0.81
2024-04-04T05:01:20.622Z,0.79
2024-04-04T05:06:24.683Z,0.80
2024-04-04T05:11:27.700Z,0.80
2024-04-04T05:16:30.603Z,0.81
2024-04-04T05:21:33.578Z,0.83
2024-04-04T05:26:36.653Z,0.89
2024-04-04T05:31:39.924Z,0.94
2024-04-04T05:36:43.036Z,0.97
2024-04-04T05:41:46.035Z,1.03
2024-04-04T05:46:48.955Z,1.07
2024-04-04T05:51:51.971Z,1.08
2024-04-04T05:56:54.957Z,1.05
2024-04-04T06:01:58.076Z,1.07
2024-04-04T06:07:20.865Z,1.05
2024-04-04T06:12:44.430Z,1.08
2024-04-04T06:18:07.278Z,1.08
2024-04-04T06:23:30.001Z,1.09
2024-04-04T06:28:32.563Z,1.11
2024-04-04T06:33:35.290Z,1.15
2024-04-04T06:38:38.341Z,1.21
2024-04-04T06:44:01.165Z,1.25
2024-04-04T06:49:05.681Z,1.28
2024-04-04T06:54:08.586Z,1.34
2024-04-04T06:59:11.430Z,1.35
2024-04-04T07:04:14.426Z,1.39
2024-04-04T07:09:17.607Z,1.44
2024-04-04T07:14:20.328Z,1.51
2024-04-04T07:19:23.150Z,1.58
2024-04-04T07:24:25.847Z,1.62
2024-04-04T07:29:28.597Z,1.65
2024-04-04T07:34:32.145Z,1.65
2024-04-04T07:39:35.122Z,1.64
2024-04-04T07:44:58.007Z,1.64
2024-04-04T07:50:07.572Z,1.64
2024-04-04T07:55:10.601Z,1.63
2024-04-04T08:00:14.871Z,1.62
2024-04-04T08:05:37.728Z,1.61
2024-04-04T08:11:00.330Z,1.70
2024-04-04T08:16:23.004Z,1.76
2024-04-04T08:21:25.736Z,1.77
2024-04-04T08:26:29.150Z,1.75
2024-04-04T08:31:32.042Z,1.75
2024-04-04T08:36:35.290Z,1.77
2024-04-04T08:41:41.105Z,1.80
2024-04-04T08:46:45.807Z,1.87
2024-04-04T08:51:49.335Z,1.94
2024-04-04T08:56:52.842Z,2.00
2024-04-04T09:01:55.721Z,2.08
2024-04-04T09:06:58.597Z,2.10
2024-04-04T09:12:11.640Z,2.15
2024-04-04T09:17:20.691Z,2.19
2024-04-04T09:22:26.567Z,2.25
2024-04-04T09:27:49.648Z,2.34
2024-04-04T09:33:13.412Z,2.41
2024-04-04T09:38:37.312Z,2.45
2024-04-04T09:44:00.096Z,2.48
2024-04-04T09:49:22.810Z,2.52
2024-04-04T09:54:26.346Z,2.59
2024-04-04T09:59:31.187Z,2.62
2024-04-04T10:04:38.699Z,2.67
2024-04-04T10:09:42.732Z,2.70
2024-04-04T10:15:12.357Z,2.74
2024-04-04T10:20:17.385Z,2.79
2024-04-04T10:25:26.507Z,2.86
2024-04-04T10:30:29.567Z,2.91
2024-04-04T10:35:32.529Z,2.95
2024-04-04T10:40:35.662Z,3.00
2024-04-04T10:45:39.115Z,3.06
2024-04-04T10:50:42.113Z,3.16
2024-04-04T10:55:45.832Z,3.30
2024-04-04T11:00:54.185Z,3.45
2024-04-04T11:05:58.498Z,3.60
2024-04-04T11:11:01.444Z,3.74
2024-04-04T11:16:04.768Z,3.90
2024-04-04T11:21:29.365Z,4.03
2024-04-04T11:26:52.696Z,4.16
2024-04-04T11:31:56.060Z,4.33
2024-04-04T11:36:58.966Z,4.38
2024-04-04T11:42:02.293Z,4.37
2024-04-04T11:47:05.418Z,4.44
2024-04-04T11:52:28.664Z,4.53
2024-04-04T11:57:51.759Z,4.65
2024-04-04T12:03:15.144Z,4.74
2024-04-04T12:08:28.227Z,4.84
2024-04-04T12:13:32.457Z,4.87
2024-04-04T12:18:54.827Z,4.94
2024-04-04T12:24:21.273Z,4.96
2024-04-04T12:29:44.006Z,4.96
2024-04-04T12:35:06.805Z,5.01
2024-04-04T12:40:29.965Z,4.97
2024-04-04T12:45:52.852Z,4.99
2024-04-04T12:50:55.618Z,5.04
2024-04-04T12:55:58.574Z,5.00
2024-04-04T13:01:21.380Z,5.07
2024-04-04T13:06:24.855Z,5.22
2024-04-04T13:11:48.433Z,5.33
2024-04-04T13:16:53.066Z,5.39
2024-04-04T13:22:16.066Z,5.46
2024-04-04T13:27:38.994Z,5.58
2024-04-04T13:33:01.696Z,5.79
2024-04-04T13:38:24.806Z,5.94
2024-04-04T13:43:47.748Z,6.08
2024-04-04T13:49:15.448Z,6.14
2024-04-04T13:54:38.258Z,6.25
2024-04-04T13:59:41.136Z,6.43
2024-04-04T14:04:44.619Z,6.59
2024-04-04T14:10:08.025Z,6.67
2024-04-04T14:15:30.765Z,6.71
2024-04-04T14:20:53.902Z,6.76
2024-04-04T14:25:56.712Z,6.81
2024-04-04T14:31:00.537Z,6.76
2024-04-04T14:36:26.832Z,6.83
2024-04-04T14:41:49.795Z,6.89
2024-04-04T14:47:12.779Z,6.93
2024-04-04T14:52:15.886Z,6.97
2024-04-04T14:57:45.612Z,7.03
2024-04-04T15:03:08.517Z,7.07
2024-04-04T15:08:31.537Z,7.11
2024-04-04T15:13:54.393Z,7.13
2024-04-04T15:19:17.337Z,7.17
2024-04-04T15:24:40.308Z,7.20
2024-04-04T15:30:03.272Z,7.23
2024-04-04T15:35:26.239Z,7.16
2024-04-04T15:40:49.266Z,7.06
2024-04-04T15:46:12.175Z,7.06
2024-04-04T15:51:39.806Z,7.02
2024-04-04T15:57:03.038Z,6.98
2024-04-04T16:02:26.181Z,6.97
2024-04-04T16:07:30.540Z,6.98
2024-04-04T16:12:33.390Z,7.01
2024-04-04T16:17:36.222Z,7.04
2024-04-04T16:22:39.689Z,7.06
2024-04-04T16:27:42.560Z,7.04
2024-04-04T16:32:45.546Z,6.99
2024-04-04T16:37:48.654Z,6.98
2024-04-04T16:42:53.892Z,6.98
2024-04-04T16:47:57.225Z,6.94
2024-04-04T16:53:02.962Z,6.94
2024-04-04T16:58:06.028Z,6.90
2024-04-04T17:03:08.770Z,6.83
2024-04-04T17:08:11.759Z,6.79
2024-04-04T17:13:14.689Z,6.78
2024-04-04T17:18:18.429Z,6.74
2024-04-04T17:23:21.336Z,6.76
2024-04-04T17:28:24.145Z,6.77
2024-04-04T17:33:27.083Z,6.80
2024-04-04T17:38:29.967Z,6.82
2024-04-04T17:43:35.106Z,6.86
2024-04-04T17:48:37.938Z,6.88
2024-04-04T17:53:46.333Z,6.96
2024-04-04T17:58:49.323Z,7.02
2024-04-04T18:03:52.203Z,7.10
2024-04-04T18:08:56.499Z,7.16
2024-04-04T18:13:59.347Z,7.21
2024-04-04T18:19:02.399Z,7.23
2024-04-04T18:24:05.588Z,7.26
2024-04-04T18:29:08.410Z,7.28
2024-04-04T18:34:11.830Z,7.30
2024-04-04T18:39:14.533Z,7.31
2024-04-04T18:44:17.944Z,7.32
2024-04-04T18:49:21.572Z,7.33
2024-04-04T18:54:24.962Z,7.34
2024-04-04T18:59:28.077Z,7.36
2024-04-04T19:04:32.302Z,7.37
2024-04-04T19:09:35.422Z,7.39
2024-04-04T19:14:58.762Z,7.43
2024-04-04T19:20:05.788Z,7.45
2024-04-04T19:25:08.474Z,7.45
2024-04-04T19:30:11.591Z,7.44
2024-04-04T19:35:14.355Z,7.44
2024-04-04T19:40:17.246Z,7.41
2024-04-04T19:45:20.324Z,7.42
2024-04-04T19:50:23.084Z,7.43
2024-04-04T19:55:26.193Z,7.43
2024-04-04T20:00:28.924Z,7.42
2024-04-04T20:05:35.622Z,7.41
2024-04-04T20:10:58.314Z,7.41
2024-04-04T20:16:02.076Z,7.42
2024-04-04T20:21:05.232Z,7.43
2024-04-04T20:26:07.988Z,7.43
2024-04-04T20:31:10.768Z,7.47
2024-04-04T20:36:13.545Z,7.49
2024-04-04T20:41:16.402Z,7.52
2024-04-04T20:46:39.117Z,7.54
2024-04-04T20:52:01.885Z,7.56
2024-04-04T20:57:25.118Z,7.58
2024-04-04T21:02:50.512Z,7.63
2024-04-04T21:08:13.410Z,7.65
2024-04-04T21:13:16.327Z,7.69
2024-04-04T21:18:19.217Z,7.71
2024-04-04T21:23:22.135Z,7.73
2024-04-04T21:28:24.852Z,7.73
2024-04-04T21:33:27.822Z,7.78
2024-04-04T21:38:31.690Z,7.81
2024-04-04T21:43:34.586Z,7.85
2024-04-04T21:48:37.277Z,7.89
2024-04-04T21:53:40.242Z,7.93
2024-04-04T21:58:43.667Z,7.96
2024-04-04T22:03:46.555Z,7.99
2024-04-04T22:08:49.220Z,8.02
2024-04-04T22:14:11.976Z,8.07
2024-04-04T22:19:34.871Z,8.14
2024-04-04T22:24:57.576Z,8.20
2024-04-04T22:30:20.139Z,8.26
2024-04-04T22:35:42.958Z,8.31
2024-04-04T22:41:06.310Z,8.35
2024-04-04T22:46:24.953Z,8.39
2024-04-04T22:51:27.740Z,8.45
2024-04-04T22:56:30.674Z,8.51
2024-04-04T23:01:33.417Z,8.54
2024-04-04T23:06:36.162Z,8.58
2024-04-04T23:11:38.804Z,8.62
2024-04-04T23:16:41.652Z,8.66
2024-04-04T23:21:44.557Z,8.72
2024-04-04T23:26:47.272Z,8.76
2024-04-04T23:31:50.003Z,8.80
2024-04-04T23:36:53.205Z,8.84
2024-04-04T23:41:56.473Z,8.87
2024-04-04T23:46:59.389Z,8.94
2024-04-04T23:52:02.789Z,8.98
2024-04-04T23:57:05.886Z,9.03
